Decoded Metar for RJCC (SAPPORO in JAPAN) (IATA:CTS) | Meteo·Mobile Aviation Weather
aviador You're here:

RJCC Decoded Metar

SAPPORO in JAPAN
Report Time2018-10-23 12:00:00
UTC Time2018-10-23 12:29:29
Flight Rules vfr VFR
Wind140° at 15 kt
W.Decomp.*RWY 19: 11.3 kt HW 9.8 kt LCW
W.Rank140° ranks 8
Current wind is above 140° avg. (8.0)
Visibility9999 m
Phenomena:N/A
Clouds:Few 020 Hf
Scattered 060 Hf
Expected CloudBase > 2,000 ft AGL from Temp-Dew spread
CeilingNone
Temp14°C (ISA -1)
Dew Point09°C (72% RH)
AAT8.4°C
QNH1020 hPa
Density Alt-79 ft
Elevation98 ft
Report Wrong Elevation
Raw Report
RJCC 231200Z 14015KT 9999 FEW020 SCT060 BKN/// 14/09 Q1020=

Extra information for RJCC:More info

Metar Taf Metar & Taf Last 4 Metars F.Rules Stats Wind Profile Meteogram Temp Stats Airport Information Weather charts Add Link Nearby VenuesMetar ALERT Operation Metar Decoded Social comments